Time;durP1;ratioP1;P1;durP2;ratioP2;P2;SDS_P1;SDS_P2;PMS_P1;PMS_P2;Temp;Humidity;BMP_temperature;BMP_pressure;BME280_temperature;BME280_humidity;BME280_pressure;Samples;Min_cycle;Max_cycle;Signal;HPM_P1;HPM_P2
2020/12/25 00:01:06;;;;;;;2.55;1.90;;;5.60;99.90;;;;;;5048316;28;20025;-77
2020/12/25 00:03:31;;;;;;;1.77;1.60;;;5.70;99.90;;;;;;5048370;28;20037;-76
2020/12/25 00:05:57;;;;;;;1.92;1.45;;;5.70;99.90;;;;;;5033058;28;20028;-77
2020/12/25 00:08:22;;;;;;;2.53;1.77;;;5.70;99.90;;;;;;5049054;28;20479;-77
2020/12/25 00:10:52;;;;;;;2.40;1.70;;;5.70;99.90;;;;;;5068620;28;20533;-77
2020/12/25 00:13:18;;;;;;;1.40;1.30;;;5.70;99.90;;;;;;5053879;28;20021;-76
2020/12/25 00:15:45;;;;;;;2.00;1.70;;;5.60;99.90;;;;;;5060542;28;20021;-76
2020/12/25 00:18:11;;;;;;;2.28;1.60;;;5.60;99.90;;;;;;5049496;28;20022;-76
2020/12/25 00:20:37;;;;;;;1.80;1.50;;;5.50;99.90;;;;;;5032862;28;20372;-76
2020/12/25 00:23:02;;;;;;;1.92;1.33;;;5.50;99.90;;;;;;5034488;28;20047;-77
2020/12/25 00:25:27;;;;;;;2.22;1.70;;;5.50;99.90;;;;;;5052337;28;20053;-77
2020/12/25 00:27:53;;;;;;;2.33;1.70;;;5.50;99.90;;;;;;5038426;28;20473;-77
2020/12/25 00:30:18;;;;;;;1.90;1.60;;;5.50;99.90;;;;;;5060789;28;20059;-77
2020/12/25 00:32:44;;;;;;;1.92;1.52;;;5.50;99.90;;;;;;5045377;28;20022;-77
2020/12/25 00:35:10;;;;;;;2.83;1.50;;;5.40;99.90;;;;;;5054276;28;20392;-78
2020/12/25 00:37:35;;;;;;;1.90;1.70;;;5.40;99.90;;;;;;5037326;28;20030;-78
2020/12/25 00:40:01;;;;;;;1.67;1.48;;;5.40;99.90;;;;;;5053942;28;20467;-77
2020/12/25 00:42:26;;;;;;;2.80;1.70;;;5.50;99.90;;;;;;5039552;28;20076;-78
2020/12/25 00:44:52;;;;;;;2.80;1.60;;;5.40;99.90;;;;;;5073627;28;20083;-77
2020/12/25 00:47:17;;;;;;;2.28;1.58;;;5.30;99.90;;;;;;5060311;28;20033;-77
2020/12/25 00:49:43;;;;;;;3.35;2.60;;;5.30;99.90;;;;;;5058303;28;20033;-77
2020/12/25 00:52:08;;;;;;;2.50;1.77;;;5.30;99.90;;;;;;5056706;28;20067;-77
2020/12/25 00:54:34;;;;;;;2.90;1.98;;;5.30;99.90;;;;;;5056437;28;20025;-77
2020/12/25 00:56:59;;;;;;;2.53;1.90;;;5.30;99.90;;;;;;5072458;28;20021;-77
2020/12/25 00:59:25;;;;;;;2.55;2.00;;;5.30;99.90;;;;;;5054777;28;20065;-78
2020/12/25 01:01:51;;;;;;;2.38;1.92;;;5.30;99.90;;;;;;5051646;28;20033;-77
2020/12/25 01:04:16;;;;;;;2.53;2.08;;;5.30;99.90;;;;;;5051798;28;20025;-77
2020/12/25 01:06:42;;;;;;;3.53;2.10;;;5.30;99.90;;;;;;5036187;28;20033;-77
2020/12/25 01:09:08;;;;;;;3.30;2.10;;;5.30;99.90;;;;;;5034776;28;20029;-77
2020/12/25 01:11:33;;;;;;;5.45;2.05;;;5.30;99.90;;;;;;5043684;28;20086;-77
2020/12/25 01:13:59;;;;;;;4.28;2.63;;;5.40;99.90;;;;;;5056063;28;20025;-77
2020/12/25 01:16:24;;;;;;;3.45;2.47;;;5.30;99.90;;;;;;5054909;28;20017;-77
2020/12/25 01:18:50;;;;;;;3.15;2.60;;;5.30;99.90;;;;;;5055677;28;20033;-77
2020/12/25 01:21:16;;;;;;;3.05;2.60;;;5.30;99.90;;;;;;5055966;28;20029;-77
2020/12/25 01:23:43;;;;;;;4.97;2.78;;;5.30;99.90;;;;;;5056041;28;20025;-77
2020/12/25 01:26:09;;;;;;;3.58;2.75;;;5.30;99.90;;;;;;5049757;28;20033;-77
2020/12/25 01:28:36;;;;;;;2.38;2.17;;;5.40;99.90;;;;;;5036312;28;20018;-77
2020/12/25 01:31:03;;;;;;;4.57;2.33;;;5.30;99.90;;;;;;5054919;28;20033;-77
2020/12/25 01:33:35;;;;;;;4.70;2.40;;;5.30;99.90;;;;;;5071720;28;20028;-78
2020/12/25 01:36:03;;;;;;;3.65;2.08;;;5.30;99.90;;;;;;5054858;28;20387;-76
2020/12/25 01:38:29;;;;;;;2.65;1.98;;;5.20;99.90;;;;;;5070438;28;20483;-77
2020/12/25 01:40:54;;;;;;;3.38;2.05;;;5.20;99.90;;;;;;5035795;28;20117;-77
2020/12/25 01:43:20;;;;;;;2.70;1.92;;;5.20;99.90;;;;;;5050474;28;20060;-76
2020/12/25 01:45:45;;;;;;;2.17;1.83;;;5.20;99.90;;;;;;5050265;28;20029;-77
2020/12/25 01:48:12;;;;;;;2.38;1.90;;;5.20;99.90;;;;;;5033719;28;20025;-76
2020/12/25 01:50:37;;;;;;;2.85;1.85;;;5.30;99.90;;;;;;5049883;28;20026;-77
2020/12/25 01:53:05;;;;;;;2.00;1.83;;;5.30;99.90;;;;;;5050248;28;20116;-76
2020/12/25 01:55:32;;;;;;;3.92;1.85;;;5.30;99.90;;;;;;5068293;28;20025;-77
2020/12/25 01:58:00;;;;;;;2.55;2.15;;;5.20;99.90;;;;;;5071089;28;20124;-77
2020/12/25 02:00:27;;;;;;;2.85;2.03;;;5.20;99.90;;;;;;5055703;28;20032;-77
2020/12/25 02:02:52;;;;;;;2.78;2.33;;;5.20;99.90;;;;;;5071353;28;20047;-78
2020/12/25 02:05:18;;;;;;;2.67;2.20;;;5.20;99.90;;;;;;5054546;28;20033;-76
2020/12/25 02:07:44;;;;;;;3.67;2.35;;;5.30;99.90;;;;;;5054357;28;20025;-77
2020/12/25 02:10:11;;;;;;;3.92;3.20;;;5.20;99.90;;;;;;5049966;28;20508;-77
2020/12/25 02:12:37;;;;;;;5.95;3.15;;;5.20;99.90;;;;;;5071296;28;20025;-77
2020/12/25 02:15:04;;;;;;;4.15;2.70;;;5.20;99.90;;;;;;5070528;28;20504;-77
2020/12/25 02:17:29;;;;;;;2.97;2.58;;;5.10;99.90;;;;;;5070728;28;20057;-78
2020/12/25 02:19:55;;;;;;;3.17;2.33;;;5.10;99.90;;;;;;5070497;28;20021;-77
2020/12/25 02:22:20;;;;;;;3.13;2.53;;;5.00;99.90;;;;;;5054987;28;20082;-77
2020/12/25 02:24:46;;;;;;;2.28;1.83;;;5.00;99.90;;;;;;5060754;28;20492;-78
2020/12/25 02:27:11;;;;;;;2.22;1.70;;;5.00;99.90;;;;;;5052800;28;20029;-78
2020/12/25 02:29:37;;;;;;;2.20;1.67;;;4.90;99.90;;;;;;5036102;28;20026;-78
2020/12/25 02:32:02;;;;;;;1.80;1.48;;;4.90;99.90;;;;;;5056090;28;20479;-78
2020/12/25 02:34:28;;;;;;;1.60;1.50;;;4.90;99.90;;;;;;5071510;28;20074;-78
2020/12/25 02:36:54;;;;;;;1.40;1.30;;;4.90;99.90;;;;;;5052527;28;20021;-78
2020/12/25 02:39:19;;;;;;;1.63;1.50;;;4.90;99.90;;;;;;5035134;28;20033;-77
2020/12/25 02:41:45;;;;;;;1.40;1.30;;;4.90;99.90;;;;;;5033696;28;20029;-77
2020/12/25 02:44:10;;;;;;;1.88;1.30;;;4.80;99.90;;;;;;5034932;28;20489;-77
2020/12/25 02:46:36;;;;;;;1.55;1.35;;;4.80;99.90;;;;;;5050526;28;20030;-78
2020/12/25 02:49:01;;;;;;;1.58;1.35;;;4.80;99.90;;;;;;5050869;28;20112;-77
2020/12/25 02:51:27;;;;;;;1.50;1.23;;;4.80;99.90;;;;;;5052430;28;20052;-77
2020/12/25 02:53:52;;;;;;;3.10;1.50;;;4.80;99.90;;;;;;5055344;28;20050;-77
2020/12/25 02:56:19;;;;;;;1.17;1.08;;;4.80;99.90;;;;;;5070908;28;20021;-77
2020/12/25 02:58:45;;;;;;;1.30;1.20;;;4.80;99.90;;;;;;5055450;28;20043;-78
2020/12/25 03:01:12;;;;;;;1.70;1.55;;;4.90;99.90;;;;;;5070625;28;20029;-76
2020/12/25 03:03:41;;;;;;;1.95;1.55;;;4.80;99.90;;;;;;5055621;28;20029;-78
2020/12/25 03:06:08;;;;;;;1.60;1.50;;;4.80;99.90;;;;;;5038098;28;20033;-78
2020/12/25 03:08:35;;;;;;;2.42;1.75;;;4.80;99.90;;;;;;5051448;28;20370;-77
2020/12/25 03:11:00;;;;;;;5.55;2.17;;;4.80;99.90;;;;;;5051529;28;20029;-77
2020/12/25 03:13:26;;;;;;;2.53;2.13;;;4.80;99.90;;;;;;5051633;28;20022;-78
2020/12/25 03:15:52;;;;;;;4.82;2.42;;;4.70;99.90;;;;;;5034549;28;20018;-77
2020/12/25 03:18:18;;;;;;;3.30;2.72;;;4.70;99.90;;;;;;5050898;28;20026;-77
2020/12/25 03:20:44;;;;;;;3.33;2.42;;;4.70;99.90;;;;;;5050899;28;20392;-77
2020/12/25 03:23:10;;;;;;;2.20;2.00;;;4.80;99.90;;;;;;5042022;28;20107;-78
2020/12/25 03:25:35;;;;;;;2.03;1.70;;;4.80;99.90;;;;;;5071141;28;20044;-77
2020/12/25 03:28:01;;;;;;;1.50;1.30;;;4.70;99.90;;;;;;5054861;28;20419;-77
2020/12/25 03:30:27;;;;;;;1.83;1.45;;;4.70;99.90;;;;;;5069789;28;20127;-77
2020/12/25 03:32:52;;;;;;;2.15;1.67;;;4.70;99.90;;;;;;5047765;28;20021;-77
2020/12/25 03:35:18;;;;;;;2.63;1.92;;;4.70;99.90;;;;;;5034757;28;20036;-76
2020/12/25 03:37:43;;;;;;;1.60;1.40;;;4.60;99.90;;;;;;5049934;28;20017;-77
2020/12/25 03:40:10;;;;;;;2.22;1.80;;;4.60;99.90;;;;;;5058598;23;20558;-75
2020/12/25 03:42:36;;;;;;;2.42;1.88;;;4.60;99.90;;;;;;5033283;28;20080;-74
2020/12/25 03:45:06;;;;;;;2.83;1.88;;;4.60;99.90;;;;;;5031616;28;20345;-74
2020/12/25 03:47:32;;;;;;;2.47;1.88;;;4.70;99.90;;;;;;5032599;28;20091;-75
2020/12/25 03:49:57;;;;;;;3.55;2.05;;;4.60;99.90;;;;;;5042394;28;20034;-74
2020/12/25 03:52:23;;;;;;;4.13;2.25;;;4.60;99.90;;;;;;5013389;28;20106;-74
2020/12/25 03:54:49;;;;;;;3.05;2.33;;;4.60;99.90;;;;;;5013132;28;20050;-74
2020/12/25 03:57:15;;;;;;;2.78;2.10;;;4.60;99.90;;;;;;5013157;28;20030;-74
2020/12/25 03:59:40;;;;;;;4.25;2.60;;;4.60;99.90;;;;;;5016072;28;20029;-74
2020/12/25 04:02:06;;;;;;;3.45;2.70;;;4.50;99.90;;;;;;5015553;28;20026;-74
2020/12/25 04:04:32;;;;;;;4.85;2.95;;;4.50;99.90;;;;;;5017386;28;20026;-74
2020/12/25 04:06:57;;;;;;;5.32;3.22;;;4.50;99.90;;;;;;5016759;28;20026;-75
2020/12/25 04:09:24;;;;;;;4.15;3.08;;;4.50;99.90;;;;;;5016813;28;20032;-74
2020/12/25 04:11:50;;;;;;;4.40;3.28;;;4.50;99.90;;;;;;5017157;28;20133;-75
2020/12/25 04:14:18;;;;;;;4.63;3.03;;;4.60;99.90;;;;;;5032148;28;20044;-74
2020/12/25 04:16:44;;;;;;;6.65;3.90;;;4.60;99.90;;;;;;5016833;28;20026;-74
2020/12/25 04:19:10;;;;;;;4.32;3.35;;;4.60;99.90;;;;;;5016722;28;20100;-74
2020/12/25 04:21:37;;;;;;;5.60;3.75;;;4.60;99.90;;;;;;5015454;28;20092;-75
2020/12/25 04:24:03;;;;;;;4.18;3.30;;;4.70;99.90;;;;;;5016657;28;20030;-75
2020/12/25 04:26:28;;;;;;;4.90;3.75;;;4.70;99.90;;;;;;5015385;28;20034;-75
2020/12/25 04:28:54;;;;;;;5.63;3.65;;;4.70;99.90;;;;;;5016262;28;20088;-75
2020/12/25 04:31:22;;;;;;;5.32;3.95;;;4.80;99.90;;;;;;5016847;28;20050;-75
2020/12/25 04:33:48;;;;;;;6.20;3.90;;;4.70;99.90;;;;;;5015264;28;20030;-75
2020/12/25 04:36:14;;;;;;;5.47;3.95;;;4.70;99.90;;;;;;5031740;28;20022;-75
2020/12/25 04:38:39;;;;;;;6.63;4.20;;;4.70;99.90;;;;;;5015196;28;20447;-75
2020/12/25 04:41:06;;;;;;;6.45;4.78;;;4.70;99.90;;;;;;5031392;28;20477;-75
2020/12/25 04:43:35;;;;;;;6.70;5.03;;;4.70;99.90;;;;;;5016145;28;20068;-75
2020/12/25 04:46:01;;;;;;;5.90;4.35;;;4.60;99.90;;;;;;5016290;28;20045;-74
2020/12/25 04:48:27;;;;;;;7.10;5.15;;;4.70;99.90;;;;;;5031436;28;20072;-74
2020/12/25 04:50:53;;;;;;;6.47;3.92;;;4.70;99.90;;;;;;5016160;28;20435;-74
2020/12/25 04:53:20;;;;;;;4.88;3.50;;;4.70;99.90;;;;;;5014914;28;20106;-74
2020/12/25 04:55:45;;;;;;;4.85;3.53;;;4.60;99.90;;;;;;5014832;28;20402;-75
2020/12/25 04:58:11;;;;;;;5.43;3.90;;;4.60;99.90;;;;;;5030966;28;20030;-74
2020/12/25 05:00:36;;;;;;;5.88;4.20;;;4.60;99.90;;;;;;5015968;28;20037;-74
2020/12/25 05:03:06;;;;;;;5.28;3.90;;;4.40;99.90;;;;;;5016120;28;20048;-74
2020/12/25 05:05:32;;;;;;;5.90;4.40;;;4.30;99.90;;;;;;5014726;28;20484;-75
2020/12/25 05:07:59;;;;;;;5.53;3.88;;;4.20;99.90;;;;;;5015669;28;20041;-75
2020/12/25 05:10:26;;;;;;;5.78;3.65;;;4.10;99.90;;;;;;5015203;28;20400;-74
2020/12/25 05:12:52;;;;;;;4.45;3.03;;;4.00;99.90;;;;;;5014607;28;20018;-76
2020/12/25 05:15:18;;;;;;;4.10;2.95;;;3.90;99.90;;;;;;5015783;28;20436;-74
2020/12/25 05:17:44;;;;;;;4.00;2.63;;;3.80;99.90;;;;;;5014523;28;20045;-76
2020/12/25 05:20:10;;;;;;;3.15;2.50;;;3.70;99.90;;;;;;5014452;28;20112;-76
2020/12/25 05:22:36;;;;;;;3.42;2.60;;;3.60;99.90;;;;;;5015478;28;20452;-76
2020/12/25 05:25:07;;;;;;;2.33;1.98;;;3.60;99.90;;;;;;5015639;28;20475;-77
2020/12/25 05:27:33;;;;;;;4.78;2.40;;;3.40;99.90;;;;;;5015539;28;20026;-77
2020/12/25 05:30:06;;;;;;;3.17;2.47;;;3.40;99.90;;;;;;5015376;28;20033;-75
2020/12/25 05:32:35;;;;;;;3.10;2.75;;;3.30;99.90;;;;;;5014203;28;20026;-77
2020/12/25 05:35:00;;;;;;;3.15;2.88;;;3.20;99.90;;;;;;5015424;28;20105;-77
2020/12/25 05:37:36;;;;;;;4.18;3.70;;;3.20;99.90;;;;;;5030654;28;20080;-77
2020/12/25 05:40:07;;;;;;;4.10;3.70;;;3.10;99.90;;;;;;5013613;28;20116;-77
2020/12/25 05:42:52;;;;;;;3.88;3.47;;;3.00;99.90;;;;;;5015245;28;20112;-76
2020/12/25 05:45:19;;;;;;;4.50;4.07;;;3.00;99.90;;;;;;5015206;28;20034;-76
2020/12/25 05:47:46;;;;;;;4.13;3.50;;;2.80;99.90;;;;;;5013751;28;20597;-76
2020/12/25 05:50:19;;;;;;;4.15;3.75;;;2.80;99.90;;;;;;5014978;28;20034;-76
2020/12/25 05:52:47;;;;;;;3.85;3.47;;;2.80;99.90;;;;;;5014881;28;20018;-76
2020/12/25 05:55:18;;;;;;;4.15;3.55;;;2.70;99.90;;;;;;5013774;28;20032;-76
2020/12/25 05:57:50;;;;;;;4.30;3.90;;;2.70;99.90;;;;;;5015116;28;20018;-76
2020/12/25 06:00:17;;;;;;;4.05;3.67;;;2.70;99.90;;;;;;5014935;28;20028;-77
2020/12/25 06:02:45;;;;;;;3.53;3.22;;;2.70;99.90;;;;;;5030196;28;20057;-76
2020/12/25 06:05:13;;;;;;;3.60;3.30;;;2.70;99.90;;;;;;5014888;28;20022;-76
2020/12/25 06:07:47;;;;;;;3.05;2.75;;;2.60;99.90;;;;;;5029801;28;20030;-77
2020/12/25 06:10:19;;;;;;;3.40;3.10;;;2.50;99.90;;;;;;5029847;28;20037;-76
2020/12/25 06:12:45;;;;;;;2.90;2.70;;;2.50;99.90;;;;;;5014798;28;20022;-76
2020/12/25 06:15:18;;;;;;;3.45;3.15;;;2.40;99.90;;;;;;5013406;28;20026;-75
2020/12/25 06:18:11;;;;;;;4.00;3.60;;;2.40;99.90;;;;;;5014718;28;20053;-77
2020/12/25 06:20:44;;;;;;;4.65;4.18;;;2.40;99.90;;;;;;5003422;28;20025;-77
2020/12/25 06:23:11;;;;;;;4.47;3.58;;;2.40;99.90;;;;;;5013902;28;20534;-76
2020/12/25 06:25:39;;;;;;;5.55;4.07;;;2.30;99.90;;;;;;5029407;28;20034;-77
2020/12/25 06:28:05;;;;;;;3.95;3.47;;;2.30;99.90;;;;;;5013205;28;20401;-76
2020/12/25 06:30:33;;;;;;;4.15;3.38;;;2.20;99.90;;;;;;5014226;28;20029;-76
2020/12/25 06:32:59;;;;;;;4.78;3.92;;;2.30;99.90;;;;;;5014457;28;20026;-77
2020/12/25 06:35:37;;;;;;;4.05;3.22;;;2.20;99.90;;;;;;5014306;28;20148;-76
2020/12/25 06:38:09;;;;;;;4.03;3.45;;;2.20;99.90;;;;;;5013059;28;20038;-76
2020/12/25 06:40:35;;;;;;;;;;;2.20;99.90;;;;;;5014178;28;20038;-76
2020/12/25 06:43:01;;;;;;;4.15;3.22;;;2.10;99.90;;;;;;5029413;28;20300;-76
2020/12/25 06:45:29;;;;;;;4.47;3.65;;;2.10;99.90;;;;;;5029302;28;20029;-76
2020/12/25 06:48:13;;;;;;;5.20;4.03;;;2.00;99.90;;;;;;5012720;28;20026;-76
2020/12/25 06:50:49;;;;;;;4.65;3.72;;;2.00;99.90;;;;;;4994382;28;20573;-76
2020/12/25 06:53:40;;;;;;;4.80;3.70;;;2.10;99.90;;;;;;4994437;28;20038;-75
2020/12/25 06:56:20;;;;;;;4.78;3.75;;;2.10;99.90;;;;;;5009473;28;20030;-76
2020/12/25 06:58:55;;;;;;;4.80;3.65;;;2.10;99.90;;;;;;4993147;28;20113;-76
2020/12/25 07:01:40;;;;;;;5.10;3.95;;;2.10;99.90;;;;;;4993015;28;20030;-76
2020/12/25 07:04:06;;;;;;;5.35;3.78;;;2.10;99.90;;;;;;5005805;28;20030;-76
2020/12/25 07:06:32;;;;;;;4.88;3.75;;;2.10;99.90;;;;;;5014051;28;20071;-76
2020/12/25 07:09:11;;;;;;;5.00;4.07;;;2.10;99.90;;;;;;5013853;28;20034;-76
2020/12/25 07:11:37;;;;;;;5.25;3.67;;;2.10;99.90;;;;;;5013637;28;20068;-76
2020/12/25 07:14:04;;;;;;;5.55;3.95;;;2.10;99.90;;;;;;5013765;28;20082;-76
2020/12/25 07:16:30;;;;;;;4.05;3.28;;;2.10;99.90;;;;;;5012091;28;20028;-76
2020/12/25 07:18:56;;;;;;;5.50;3.67;;;2.10;99.90;;;;;;5013862;28;20540;-76
2020/12/25 07:21:22;;;;;;;4.78;3.40;;;2.10;99.90;;;;;;5013504;28;20129;-74
2020/12/25 07:23:47;;;;;;;4.05;3.28;;;2.20;99.90;;;;;;5012345;28;20103;-76
2020/12/25 07:26:14;;;;;;;5.53;3.33;;;2.20;99.90;;;;;;5013528;28;20405;-74
2020/12/25 07:28:40;;;;;;;4.10;3.20;;;2.20;99.90;;;;;;5013635;28;20511;-74
2020/12/25 07:31:06;;;;;;;4.63;3.50;;;2.20;99.90;;;;;;5011887;28;20491;-75
2020/12/25 07:33:31;;;;;;;4.28;3.33;;;2.20;99.90;;;;;;5013171;28;20022;-75
2020/12/25 07:35:58;;;;;;;4.35;3.10;;;2.30;99.90;;;;;;5013636;28;20030;-74
2020/12/25 07:38:25;;;;;;;4.60;3.67;;;2.20;99.90;;;;;;5013299;28;20038;-74
2020/12/25 07:40:51;;;;;;;5.82;3.80;;;2.20;99.90;;;;;;5028365;28;20037;-74
2020/12/25 07:43:16;;;;;;;4.30;3.45;;;2.20;99.90;;;;;;5013272;28;20392;-75
2020/12/25 07:45:43;;;;;;;4.70;3.60;;;2.10;99.90;;;;;;5013054;28;20026;-74
2020/12/25 07:48:09;;;;;;;4.45;3.63;;;2.10;99.90;;;;;;5013541;28;20186;-76
2020/12/25 07:50:41;;;;;;;5.78;3.85;;;2.20;99.90;;;;;;5013202;28;20040;-76
2020/12/25 07:53:14;;;;;;;;;;;2.20;99.90;;;;;;5012429;28;20110;-75
2020/12/25 07:55:44;;;;;;;6.45;4.72;;;2.20;99.90;;;;;;5028499;28;19964;-75
2020/12/25 07:58:21;;;;;;;4.85;3.78;;;2.20;99.90;;;;;;5028484;28;20026;-75
2020/12/25 08:00:47;;;;;;;7.30;5.10;;;2.10;99.90;;;;;;5012796;28;20030;-75
2020/12/25 08:03:13;;;;;;;5.50;4.07;;;2.10;99.90;;;;;;5013293;28;20026;-75
2020/12/25 08:05:39;;;;;;;6.75;4.80;;;2.10;99.90;;;;;;5029277;28;20164;-75
2020/12/25 08:08:05;;;;;;;4.60;3.90;;;2.10;99.90;;;;;;5008778;28;20060;-76
2020/12/25 08:10:34;;;;;;;6.85;4.82;;;2.10;99.90;;;;;;5028101;28;20026;-76
2020/12/25 08:13:00;;;;;;;4.90;4.38;;;2.10;99.90;;;;;;5028300;28;20018;-76
2020/12/25 08:15:26;;;;;;;5.85;4.68;;;2.10;99.90;;;;;;5012853;28;20048;-75
2020/12/25 08:17:54;;;;;;;4.88;3.75;;;2.10;99.90;;;;;;5011760;28;20116;-75
2020/12/25 08:20:23;;;;;;;5.30;4.15;;;2.10;99.90;;;;;;5012940;28;20053;-76
2020/12/25 08:22:50;;;;;;;4.78;3.83;;;2.10;99.90;;;;;;5013101;28;20489;-76
2020/12/25 08:25:17;;;;;;;6.25;4.53;;;2.20;99.90;;;;;;5012857;28;20022;-76
2020/12/25 08:27:43;;;;;;;4.93;4.00;;;2.10;99.90;;;;;;5013064;28;20029;-76
2020/12/25 08:30:08;;;;;;;5.93;4.70;;;2.10;99.90;;;;;;5012675;28;20033;-76
2020/12/25 08:32:34;;;;;;;5.57;4.32;;;2.20;99.90;;;;;;5011435;28;20519;-76
2020/12/25 08:35:19;;;;;;;5.35;4.32;;;2.20;99.90;;;;;;5012517;28;20018;-75
2020/12/25 08:37:52;;;;;;;6.50;3.83;;;2.30;99.90;;;;;;5011488;28;20022;-76
2020/12/25 08:40:17;;;;;;;4.50;3.72;;;2.30;99.90;;;;;;5012276;28;20089;-76
2020/12/25 08:42:43;;;;;;;5.00;3.65;;;2.40;99.90;;;;;;5027907;28;20033;-76
2020/12/25 08:45:09;;;;;;;4.40;3.63;;;2.40;99.90;;;;;;5011784;28;20030;-76
2020/12/25 08:47:35;;;;;;;4.50;3.50;;;2.40;99.90;;;;;;5031527;28;20061;-76
2020/12/25 08:50:01;;;;;;;4.43;3.75;;;2.40;99.90;;;;;;5014613;28;20026;-75
2020/12/25 08:52:28;;;;;;;4.68;3.45;;;2.50;99.90;;;;;;5014494;28;20072;-76
2020/12/25 08:55:00;;;;;;;4.75;3.50;;;2.50;99.90;;;;;;5016284;28;20513;-75
2020/12/25 08:57:26;;;;;;;3.90;3.28;;;2.60;99.90;;;;;;5016183;28;20026;-76
2020/12/25 09:00:09;;;;;;;3.85;3.30;;;2.60;99.90;;;;;;5014873;28;20464;-75
2020/12/25 09:02:35;;;;;;;6.50;4.82;;;2.70;99.90;;;;;;5016123;28;20036;-76
2020/12/25 09:05:01;;;;;;;6.43;5.38;;;2.70;99.90;;;;;;5014748;28;20026;-76
2020/12/25 09:07:26;;;;;;;7.82;6.85;;;2.80;99.90;;;;;;5030938;28;20075;-76
2020/12/25 09:09:52;;;;;;;6.78;5.70;;;2.80;99.90;;;;;;5030919;28;20152;-75
2020/12/25 09:12:17;;;;;;;5.25;4.57;;;2.70;99.90;;;;;;5016184;28;20124;-76
2020/12/25 09:14:43;;;;;;;6.72;6.10;;;2.80;99.90;;;;;;5031113;28;20022;-76
2020/12/25 09:17:09;;;;;;;7.18;4.75;;;2.80;99.90;;;;;;5015720;28;20378;-75
2020/12/25 09:19:34;;;;;;;4.93;3.85;;;2.90;99.90;;;;;;5015390;28;20095;-75
2020/12/25 09:22:00;;;;;;;5.70;4.20;;;2.80;99.90;;;;;;5015610;28;20034;-75
2020/12/25 09:24:26;;;;;;;6.00;4.70;;;2.90;99.90;;;;;;5014666;28;20033;-76
2020/12/25 09:26:52;;;;;;;5.47;4.40;;;2.90;99.90;;;;;;5030223;28;20052;-75
2020/12/25 09:29:17;;;;;;;4.05;3.53;;;2.90;99.90;;;;;;5015375;28;20030;-75
2020/12/25 09:31:43;;;;;;;4.82;4.00;;;3.00;99.90;;;;;;5030091;28;20084;-75
2020/12/25 09:34:09;;;;;;;4.80;4.28;;;3.00;99.90;;;;;;5013630;28;20022;-76
2020/12/25 09:36:34;;;;;;;9.70;6.68;;;3.00;99.90;;;;;;5014721;28;20508;-76
2020/12/25 09:39:00;;;;;;;4.97;4.47;;;3.10;99.90;;;;;;5030213;28;20501;-75
2020/12/25 09:41:25;;;;;;;6.60;5.00;;;3.10;99.90;;;;;;5048728;23;20045;-77
2020/12/25 09:43:51;;;;;;;4.70;4.00;;;3.20;99.90;;;;;;5052882;28;20041;-77
2020/12/25 09:46:17;;;;;;;6.13;4.63;;;3.20;99.90;;;;;;5045862;28;20030;-77
2020/12/25 09:48:42;;;;;;;5.72;4.55;;;3.20;99.90;;;;;;5033519;28;20026;-78
2020/12/25 09:51:08;;;;;;;5.47;4.55;;;3.10;99.90;;;;;;5026913;28;20085;-78
2020/12/25 09:53:33;;;;;;;21.40;11.45;;;3.10;99.90;;;;;;5015781;28;20022;-77
2020/12/25 09:55:59;;;;;;;8.90;4.85;;;3.10;99.90;;;;;;5015024;28;20156;-76
2020/12/25 09:58:24;;;;;;;6.22;5.30;;;3.10;99.90;;;;;;5032174;28;20022;-78
2020/12/25 10:00:51;;;;;;;6.95;4.93;;;3.20;99.90;;;;;;5031652;28;20034;-78
2020/12/25 10:03:16;;;;;;;5.78;4.93;;;3.30;99.90;;;;;;5015360;28;20041;-77
2020/12/25 10:05:42;;;;;;;5.75;5.07;;;3.30;99.90;;;;;;5018034;28;20105;-78
2020/12/25 10:08:07;;;;;;;5.93;4.88;;;3.30;99.90;;;;;;5033955;28;20029;-77
2020/12/25 10:10:33;;;;;;;6.28;5.13;;;3.30;99.90;;;;;;5018815;28;20037;-77
2020/12/25 10:12:58;;;;;;;5.43;4.80;;;3.30;99.90;;;;;;5016403;28;20071;-77
2020/12/25 10:15:24;;;;;;;6.72;5.20;;;3.30;99.90;;;;;;5030716;28;20505;-77
2020/12/25 10:17:50;;;;;;;5.78;4.60;;;3.40;99.90;;;;;;5030284;28;20022;-77
2020/12/25 10:20:16;;;;;;;5.78;4.75;;;3.40;99.90;;;;;;5030325;28;20030;-77
2020/12/25 10:22:42;;;;;;;5.72;4.85;;;3.40;99.90;;;;;;5030211;28;20036;-77
2020/12/25 10:25:07;;;;;;;5.90;4.65;;;3.50;99.90;;;;;;5015328;28;20026;-78
2020/12/25 10:27:33;;;;;;;4.93;4.15;;;3.50;99.90;;;;;;5030823;28;20030;-77
2020/12/25 10:29:58;;;;;;;6.63;4.82;;;3.50;99.90;;;;;;5030260;28;20083;-77
2020/12/25 10:32:24;;;;;;;5.15;4.18;;;3.60;99.90;;;;;;5033378;28;20030;-78
2020/12/25 10:34:49;;;;;;;5.80;4.57;;;3.60;99.90;;;;;;5034731;28;20477;-79
2020/12/25 10:37:15;;;;;;;6.43;4.38;;;3.60;99.90;;;;;;5032204;28;20026;-78
2020/12/25 10:39:41;;;;;;;7.50;5.40;;;3.50;99.90;;;;;;5032839;28;20026;-78
2020/12/25 10:42:10;;;;;;;7.43;5.07;;;3.40;99.90;;;;;;5015763;28;20037;-77
2020/12/25 10:44:36;;;;;;;8.68;5.18;;;3.40;99.90;;;;;;5015884;28;20030;-77
2020/12/25 10:47:03;;;;;;;6.65;4.95;;;3.40;99.90;;;;;;5031715;28;20029;-78
2020/12/25 10:49:28;;;;;;;6.38;4.82;;;3.40;99.90;;;;;;5017358;28;20505;-78
2020/12/25 10:51:54;;;;;;;8.00;5.93;;;3.50;99.90;;;;;;5015149;28;20093;-78
2020/12/25 10:54:19;;;;;;;6.38;4.78;;;3.50;99.90;;;;;;5016548;28;20393;-78
2020/12/25 10:56:45;;;;;;;6.97;5.25;;;3.50;99.90;;;;;;5014951;28;20030;-77
2020/12/25 10:59:11;;;;;;;6.40;4.93;;;3.50;99.90;;;;;;5016217;28;20460;-77
2020/12/25 11:01:36;;;;;;;6.82;5.47;;;3.50;99.90;;;;;;5014790;28;20026;-77
2020/12/25 11:04:03;;;;;;;6.25;5.18;;;3.50;99.90;;;;;;5016073;28;20073;-78
2020/12/25 11:06:33;;;;;;;5.68;4.65;;;3.60;99.90;;;;;;5014973;28;20050;-76
2020/12/25 11:09:00;;;;;;;6.35;5.05;;;3.60;99.90;;;;;;5014410;28;20560;-78
2020/12/25 11:11:26;;;;;;;7.78;5.90;;;3.60;99.90;;;;;;5016726;28;20026;-78
2020/12/25 11:13:52;;;;;;;7.78;4.93;;;3.60;99.90;;;;;;5015621;28;20100;-77
2020/12/25 11:16:29;;;;;;;9.20;5.65;;;3.60;99.90;;;;;;5030775;28;20025;-77
2020/12/25 11:18:56;;;;;;;8.30;5.68;;;3.60;99.90;;;;;;5031393;28;20029;-78
2020/12/25 11:21:26;;;;;;;7.53;5.10;;;3.50;99.90;;;;;;5031121;28;20022;-77
2020/12/25 11:23:53;;;;;;;6.32;4.78;;;3.50;99.90;;;;;;5016840;28;20100;-78
2020/12/25 11:26:27;;;;;;;6.32;4.97;;;3.60;99.90;;;;;;5031768;28;20022;-77
2020/12/25 11:28:55;;;;;;;8.25;6.07;;;3.50;99.90;;;;;;5015363;28;20022;-77
2020/12/25 11:31:21;;;;;;;8.75;5.75;;;3.50;99.90;;;;;;5031510;28;20029;-78
2020/12/25 11:33:47;;;;;;;8.73;5.68;;;3.50;99.90;;;;;;5031643;28;20026;-78
2020/12/25 11:36:15;;;;;;;9.98;6.75;;;3.40;99.90;;;;;;5031626;28;20495;-78
2020/12/25 11:38:41;;;;;;;9.63;6.50;;;3.40;99.90;;;;;;5014513;28;20026;-78
2020/12/25 11:41:08;;;;;;;8.77;6.22;;;3.40;99.90;;;;;;5015549;28;20408;-78
2020/12/25 11:43:34;;;;;;;10.00;6.75;;;3.50;99.90;;;;;;5030898;28;20138;-78
2020/12/25 11:46:00;;;;;;;8.50;5.75;;;3.50;99.90;;;;;;5031044;28;20026;-77
2020/12/25 11:48:25;;;;;;;10.65;7.47;;;3.50;99.90;;;;;;5015662;28;20029;-77
2020/12/25 11:50:51;;;;;;;8.57;6.10;;;3.40;99.90;;;;;;5031431;28;20037;-78
2020/12/25 11:53:16;;;;;;;8.05;6.47;;;3.40;99.90;;;;;;5014641;28;20022;-78
2020/12/25 11:55:42;;;;;;;9.13;6.40;;;3.40;99.90;;;;;;5015436;28;20034;-77
2020/12/25 11:58:07;;;;;;;9.60;6.45;;;3.40;99.90;;;;;;5015350;28;20026;-77
2020/12/25 12:00:33;;;;;;;9.25;6.32;;;3.30;99.90;;;;;;5015708;28;20041;-77
2020/12/25 12:02:58;;;;;;;11.15;6.85;;;3.40;99.90;;;;;;5014884;28;20034;-77
2020/12/25 12:05:24;;;;;;;7.85;6.07;;;3.30;99.90;;;;;;5031472;28;20030;-78
2020/12/25 12:07:49;;;;;;;8.63;6.05;;;3.30;99.90;;;;;;5014521;28;20436;-77
2020/12/25 12:10:15;;;;;;;9.85;6.38;;;3.40;99.90;;;;;;5030613;28;20028;-78
2020/12/25 12:12:40;;;;;;;8.05;5.88;;;3.40;99.90;;;;;;5014900;28;20022;-79
2020/12/25 12:15:06;;;;;;;8.45;6.10;;;3.50;99.90;;;;;;5030899;28;20072;-79
2020/12/25 12:17:32;;;;;;;11.20;7.25;;;3.50;99.90;;;;;;5015947;28;20420;-78
2020/12/25 12:19:57;;;;;;;17.95;11.00;;;3.50;99.90;;;;;;5014822;28;20026;-77
2020/12/25 12:22:23;;;;;;;22.98;12.93;;;3.40;99.90;;;;;;5019928;28;20034;-78
2020/12/25 12:24:48;;;;;;;24.25;13.82;;;3.40;99.90;;;;;;5019679;28;20077;-78
2020/12/25 12:27:14;;;;;;;20.20;11.27;;;3.40;99.90;;;;;;5018288;28;20065;-78
2020/12/25 12:29:39;;;;;;;14.82;9.30;;;3.40;99.90;;;;;;5020086;28;20036;-78
2020/12/25 12:32:05;;;;;;;12.25;7.43;;;3.40;99.90;;;;;;5043618;28;20021;-77
2020/12/25 12:34:30;;;;;;;18.00;10.50;;;3.30;99.90;;;;;;5027866;28;20025;-79
2020/12/25 12:36:56;;;;;;;18.08;11.15;;;3.30;99.90;;;;;;5028543;28;20025;-77
2020/12/25 12:39:21;;;;;;;16.80;11.82;;;3.30;99.90;;;;;;5028199;28;20046;-79
2020/12/25 12:41:47;;;;;;;15.70;10.05;;;3.30;99.90;;;;;;5037107;28;20033;-79
2020/12/25 12:44:13;;;;;;;13.38;9.00;;;3.30;99.90;;;;;;5022854;28;20072;-79
2020/12/25 12:46:38;;;;;;;13.48;8.63;;;3.30;99.90;;;;;;5037072;28;20084;-78
2020/12/25 12:49:04;;;;;;;12.95;8.50;;;3.30;99.90;;;;;;5035633;28;20133;-79
2020/12/25 12:51:29;;;;;;;10.82;7.82;;;3.50;99.90;;;;;;5018380;28;20068;-79
2020/12/25 12:53:55;;;;;;;11.52;7.75;;;3.50;99.90;;;;;;5019416;28;20021;-78
2020/12/25 12:56:20;;;;;;;12.02;8.50;;;3.50;99.90;;;;;;5017678;28;20022;-78